createdAt,value
2022-10-18T00:02:20.389Z,4.91
2022-10-18T00:04:47.759Z,4.84
2022-10-18T00:07:14.662Z,4.75
2022-10-18T00:09:41.435Z,4.71
2022-10-18T00:12:08.209Z,4.73
2022-10-18T00:14:35.061Z,4.62
2022-10-18T00:17:02.114Z,4.73
2022-10-18T00:19:29.487Z,4.74
2022-10-18T00:21:56.424Z,4.75
2022-10-18T00:24:23.219Z,4.68
2022-10-18T00:26:49.955Z,4.64
2022-10-18T00:29:17.025Z,4.59
2022-10-18T00:31:44.482Z,4.60
2022-10-18T00:34:13.794Z,4.59
2022-10-18T00:36:40.820Z,4.56
2022-10-18T00:39:08.991Z,4.56
2022-10-18T00:41:38.030Z,4.54
2022-10-18T00:44:10.804Z,4.50
2022-10-18T00:46:40.337Z,4.50
2022-10-18T00:49:11.409Z,4.46
2022-10-18T00:52:04.217Z,4.41
2022-10-18T00:54:33.370Z,4.42
2022-10-18T00:57:01.013Z,4.46
2022-10-18T00:59:28.336Z,4.31
2022-10-18T01:01:55.085Z,4.22
2022-10-18T01:04:22.365Z,4.16
2022-10-18T01:07:16.446Z,4.16
2022-10-18T01:10:00.820Z,4.17
2022-10-18T01:12:56.061Z,4.09
2022-10-18T01:15:32.298Z,4.00
2022-10-18T01:18:02.034Z,4.02
2022-10-18T01:20:59.928Z,4.05
2022-10-18T01:24:08.802Z,4.04
2022-10-18T01:27:00.567Z,3.84
2022-10-18T01:30:04.591Z,3.85
2022-10-18T01:32:38.816Z,3.80
2022-10-18T01:35:11.919Z,3.76
2022-10-18T01:37:39.488Z,3.71
2022-10-18T01:40:07.436Z,3.76
2022-10-18T01:42:34.858Z,3.78
2022-10-18T01:45:02.136Z,3.79
2022-10-18T01:47:29.270Z,3.77
2022-10-18T01:50:00.786Z,3.82
2022-10-18T01:52:27.776Z,3.82
2022-10-18T01:54:55.595Z,3.81
2022-10-18T01:57:51.696Z,3.84
2022-10-18T02:00:26.760Z,3.82
2022-10-18T02:03:02.427Z,3.76
2022-10-18T02:05:31.947Z,3.62
2022-10-18T02:08:22.908Z,3.54
2022-10-18T02:11:11.156Z,3.53
2022-10-18T02:13:59.462Z,3.49
2022-10-18T02:16:30.089Z,3.42
2022-10-18T02:19:06.903Z,3.37
2022-10-18T02:21:34.334Z,3.43
2022-10-18T02:24:02.342Z,3.37
2022-10-18T02:26:29.744Z,3.35
2022-10-18T02:28:56.678Z,3.47
2022-10-18T02:31:29.002Z,3.52
2022-10-18T02:34:21.023Z,3.49
2022-10-18T02:36:48.563Z,3.38
2022-10-18T02:39:19.070Z,3.38
2022-10-18T02:41:45.928Z,3.28
2022-10-18T02:44:16.714Z,3.25
2022-10-18T02:46:51.823Z,3.37
2022-10-18T02:49:18.620Z,3.38
2022-10-18T02:51:45.505Z,3.39
2022-10-18T02:54:12.314Z,3.41
2022-10-18T02:56:39.124Z,3.39
2022-10-18T02:59:07.516Z,3.38
2022-10-18T03:01:36.246Z,3.33
2022-10-18T03:04:04.083Z,3.30
2022-10-18T03:06:31.803Z,3.26
2022-10-18T03:08:58.619Z,3.23
2022-10-18T03:11:25.404Z,3.14
2022-10-18T03:13:52.227Z,3.13
2022-10-18T03:16:19.069Z,3.09
2022-10-18T03:18:46.012Z,3.05
2022-10-18T03:21:12.874Z,3.07
2022-10-18T03:23:41.816Z,3.08
2022-10-18T03:26:09.502Z,3.05
2022-10-18T03:28:36.348Z,3.08
2022-10-18T03:31:04.423Z,3.15
2022-10-18T03:33:32.533Z,3.16
2022-10-18T03:35:59.384Z,3.10
2022-10-18T03:38:26.395Z,3.09
2022-10-18T03:40:53.183Z,3.02
2022-10-18T03:43:20.027Z,3.01
2022-10-18T03:45:46.797Z,3.00
2022-10-18T03:48:13.979Z,3.06
2022-10-18T03:50:40.858Z,3.01
2022-10-18T03:53:07.679Z,3.01
2022-10-18T03:55:34.626Z,2.98
2022-10-18T03:58:01.498Z,2.96
2022-10-18T04:00:28.374Z,2.90
2022-10-18T04:02:56.087Z,2.90
2022-10-18T04:05:24.207Z,2.86
2022-10-18T04:07:50.975Z,2.87
2022-10-18T04:10:18.742Z,2.88
2022-10-18T04:12:47.770Z,2.82
2022-10-18T04:15:14.845Z,2.77
2022-10-18T04:17:42.317Z,2.73
2022-10-18T04:20:09.693Z,2.66
2022-10-18T04:22:36.734Z,2.67
2022-10-18T04:25:04.391Z,2.55
2022-10-18T04:27:31.568Z,2.53
2022-10-18T04:29:58.736Z,2.51
2022-10-18T04:32:27.900Z,2.42
2022-10-18T04:34:54.726Z,2.41
2022-10-18T04:37:21.725Z,2.53
2022-10-18T04:39:51.354Z,2.54
2022-10-18T04:42:21.140Z,2.49
2022-10-18T04:44:47.992Z,2.49
2022-10-18T04:47:15.038Z,2.51
2022-10-18T04:49:41.891Z,2.52
2022-10-18T04:52:08.881Z,2.53
2022-10-18T04:54:35.816Z,2.59
2022-10-18T04:57:02.632Z,2.60
2022-10-18T04:59:29.502Z,2.65
2022-10-18T05:01:56.425Z,2.67
2022-10-18T05:04:23.400Z,2.69
2022-10-18T05:06:50.265Z,2.68
2022-10-18T05:09:17.045Z,2.78
2022-10-18T05:11:44.154Z,2.86
2022-10-18T05:14:10.966Z,2.95
2022-10-18T05:16:37.776Z,2.99
2022-10-18T05:19:05.823Z,3.05
2022-10-18T05:21:33.459Z,3.04
2022-10-18T05:24:00.495Z,3.08
2022-10-18T05:26:27.359Z,3.08
2022-10-18T05:28:54.389Z,3.14
2022-10-18T05:31:21.602Z,3.18
2022-10-18T05:33:48.393Z,3.25
2022-10-18T05:36:15.323Z,3.36
2022-10-18T05:38:43.041Z,3.43
2022-10-18T05:41:10.672Z,3.47
2022-10-18T05:43:37.930Z,3.60
2022-10-18T05:46:06.503Z,3.69
2022-10-18T05:48:36.072Z,3.75
2022-10-18T05:51:02.957Z,3.90
2022-10-18T05:53:38.011Z,4.10
2022-10-18T05:56:06.289Z,4.30
2022-10-18T05:58:33.594Z,4.46
2022-10-18T06:01:04.590Z,4.59
2022-10-18T06:03:31.690Z,4.68
2022-10-18T06:06:06.177Z,4.85
2022-10-18T06:08:33.262Z,5.01
2022-10-18T06:11:00.158Z,5.16
2022-10-18T06:13:28.276Z,5.32
2022-10-18T06:15:57.717Z,5.45
2022-10-18T06:18:24.805Z,5.57
2022-10-18T06:20:59.101Z,5.75
2022-10-18T06:23:38.190Z,5.96
2022-10-18T06:26:18.803Z,6.14
2022-10-18T06:28:51.859Z,6.37
2022-10-18T06:31:24.476Z,6.56
2022-10-18T06:33:53.533Z,6.70
2022-10-18T06:36:24.200Z,6.87
2022-10-18T06:38:56.211Z,7.05
2022-10-18T06:41:42.324Z,7.25
2022-10-18T06:44:21.834Z,7.50
2022-10-18T06:46:59.827Z,7.66
2022-10-18T06:49:36.419Z,7.82
2022-10-18T06:52:11.671Z,8.05
2022-10-18T06:54:38.781Z,8.24
2022-10-18T06:57:08.883Z,8.51
2022-10-18T06:59:36.010Z,8.70
2022-10-18T07:02:10.846Z,8.95
2022-10-18T07:07:41.558Z,9.43
2022-10-18T07:10:13.041Z,9.74
2022-10-18T07:12:43.845Z,10.02
2022-10-18T07:15:17.995Z,10.30
2022-10-18T07:17:51.331Z,10.53
2022-10-18T07:20:39.388Z,10.80
2022-10-18T07:23:25.708Z,11.13
2022-10-18T07:26:28.136Z,11.46
2022-10-18T07:29:16.181Z,11.82
2022-10-18T07:32:27.580Z,12.19
2022-10-18T07:40:18.663Z,12.98
2022-10-18T07:42:45.428Z,13.18
2022-10-18T07:45:13.667Z,13.36
2022-10-18T07:47:40.817Z,13.60
2022-10-18T07:50:08.479Z,13.78
2022-10-18T07:52:35.229Z,14.02
2022-10-18T07:55:01.961Z,14.30
2022-10-18T07:57:28.668Z,14.53
2022-10-18T07:59:57.071Z,14.77
2022-10-18T08:02:24.456Z,15.04
2022-10-18T08:04:51.214Z,15.23
2022-10-18T08:07:18.033Z,15.42
2022-10-18T08:09:44.873Z,15.53
2022-10-18T08:12:11.702Z,15.78
2022-10-18T08:14:38.492Z,15.95
2022-10-18T08:17:05.242Z,16.20
2022-10-18T08:19:32.147Z,16.40
2022-10-18T08:21:58.864Z,16.60
2022-10-18T08:24:25.655Z,16.86
2022-10-18T08:26:52.452Z,17.05
2022-10-18T08:29:23.340Z,17.27
2022-10-18T08:31:51.775Z,17.50
2022-10-18T08:34:19.794Z,17.67
2022-10-18T08:36:46.931Z,18.06
2022-10-18T08:39:13.794Z,18.14
2022-10-18T08:42:11.742Z,18.47
2022-10-18T08:44:45.901Z,18.55
2022-10-18T08:47:27.042Z,18.57
2022-10-18T08:50:00.542Z,18.92
2022-10-18T08:52:34.804Z,19.24
2022-10-18T08:55:04.637Z,19.45
2022-10-18T08:57:32.464Z,19.64
2022-10-18T08:59:59.279Z,19.92
2022-10-18T09:02:38.744Z,20.11
2022-10-18T09:05:15.229Z,20.33
2022-10-18T09:07:45.120Z,20.67
2022-10-18T09:10:11.894Z,20.91
2022-10-18T09:13:16.180Z,21.10
2022-10-18T09:15:52.375Z,21.43
2022-10-18T09:18:38.163Z,21.61
2022-10-18T09:21:46.698Z,21.91
2022-10-18T09:24:29.205Z,22.12
2022-10-18T09:27:00.284Z,22.28
2022-10-18T09:29:33.193Z,22.61
2022-10-18T09:32:34.835Z,22.68
2022-10-18T09:35:15.958Z,22.96
2022-10-18T09:37:43.523Z,23.22
2022-10-18T09:40:26.270Z,23.43
2022-10-18T09:43:13.088Z,23.75
2022-10-18T09:45:43.584Z,23.93
2022-10-18T09:48:48.527Z,24.28
2022-10-18T09:51:24.145Z,24.42
2022-10-18T09:54:15.374Z,24.56
2022-10-18T09:57:04.247Z,24.70
2022-10-18T09:59:47.097Z,24.73
2022-10-18T10:02:15.876Z,24.78
2022-10-18T10:04:43.041Z,25.14
2022-10-18T10:07:14.077Z,25.23
2022-10-18T10:09:46.283Z,25.22
2022-10-18T10:12:28.234Z,24.98
2022-10-18T10:14:55.230Z,24.84
2022-10-18T10:17:26.233Z,25.02
2022-10-18T10:20:20.819Z,25.23
2022-10-18T10:22:47.985Z,25.30
2022-10-18T10:25:32.051Z,25.34
2022-10-18T10:28:04.225Z,25.49
2022-10-18T10:30:34.272Z,25.31
2022-10-18T10:33:01.495Z,25.30
2022-10-18T10:35:52.502Z,25.53
2022-10-18T10:38:25.732Z,25.82
2022-10-18T10:40:53.114Z,25.86
2022-10-18T10:43:37.089Z,25.99
2022-10-18T10:46:10.790Z,26.09
2022-10-18T10:48:50.538Z,26.24
2022-10-18T10:51:38.466Z,26.29
2022-10-18T10:54:08.181Z,26.43
2022-10-18T10:56:59.153Z,26.53
2022-10-18T10:59:28.521Z,26.38
2022-10-18T11:02:14.330Z,26.47
2022-10-18T11:04:42.223Z,26.47
2022-10-18T11:07:33.593Z,26.60
2022-10-18T11:10:11.358Z,26.68
2022-10-18T11:12:38.878Z,26.72
2022-10-18T11:15:14.672Z,26.79
2022-10-18T11:18:01.389Z,27.09
2022-10-18T11:20:29.772Z,27.04
2022-10-18T11:22:56.521Z,27.07
2022-10-18T11:25:25.944Z,27.26
2022-10-18T11:28:27.149Z,27.20
2022-10-18T11:31:23.266Z,27.29
2022-10-18T11:34:20.980Z,27.67
2022-10-18T11:37:30.103Z,27.61
2022-10-18T11:40:09.896Z,26.86
2022-10-18T11:42:42.623Z,26.66
2022-10-18T11:48:04.686Z,27.16
2022-10-18T11:50:31.460Z,27.37
2022-10-18T11:53:01.335Z,27.61
2022-10-18T11:55:37.131Z,27.75
2022-10-18T11:58:15.708Z,27.70
2022-10-18T12:01:04.555Z,27.70
2022-10-18T12:03:41.055Z,27.96
2022-10-18T12:06:15.696Z,28.10
2022-10-18T12:08:53.324Z,27.99
2022-10-18T12:11:24.450Z,27.93
2022-10-18T12:14:13.230Z,28.06
2022-10-18T12:17:20.361Z,28.22
2022-10-18T12:19:33.095Z,28.07
2022-10-18T12:22:35.494Z,28.10
2022-10-18T12:25:02.693Z,28.08
2022-10-18T12:27:38.675Z,28.22
2022-10-18T12:30:14.727Z,28.20
2022-10-18T12:32:56.294Z,28.33
2022-10-18T12:35:32.362Z,28.44
2022-10-18T12:38:08.260Z,28.46
2022-10-18T12:40:43.700Z,28.44
2022-10-18T12:43:18.175Z,28.43
2022-10-18T12:45:56.941Z,28.41
2022-10-18T12:48:45.680Z,28.33
2022-10-18T12:51:21.386Z,28.42
2022-10-18T12:54:01.771Z,28.48
2022-10-18T12:56:28.472Z,28.69
2022-10-18T12:59:13.869Z,28.72
2022-10-18T13:01:52.927Z,28.60
2022-10-18T13:04:28.717Z,28.69
2022-10-18T13:06:58.590Z,28.83
2022-10-18T13:09:30.737Z,28.79
2022-10-18T13:12:20.148Z,28.78
2022-10-18T13:15:12.453Z,28.69
2022-10-18T13:17:50.136Z,28.76
2022-10-18T13:20:28.170Z,28.86
2022-10-18T13:23:35.357Z,28.99
2022-10-18T13:26:19.651Z,28.94
2022-10-18T13:29:24.908Z,28.95
2022-10-18T13:32:07.355Z,28.88
2022-10-18T13:34:38.205Z,28.80
2022-10-18T13:37:06.833Z,28.75
2022-10-18T13:39:33.868Z,28.66
2022-10-18T13:42:00.790Z,28.65
2022-10-18T13:44:40.110Z,28.65
2022-10-18T13:47:07.107Z,28.71
2022-10-18T13:49:39.770Z,28.65
2022-10-18T13:52:34.417Z,28.72
2022-10-18T13:55:04.288Z,28.53
2022-10-18T13:57:37.088Z,28.41
2022-10-18T14:00:18.884Z,28.27
2022-10-18T14:02:56.770Z,28.21
2022-10-18T14:05:46.589Z,28.07
2022-10-18T14:08:20.784Z,27.99
2022-10-18T14:11:07.285Z,27.86
2022-10-18T14:13:43.745Z,27.76
2022-10-18T14:16:25.166Z,27.62
2022-10-18T14:18:55.689Z,27.35
2022-10-18T14:21:31.471Z,26.79
2022-10-18T14:23:58.980Z,26.22
2022-10-18T14:26:29.245Z,25.65
2022-10-18T14:29:07.251Z,24.85
2022-10-18T14:31:34.744Z,23.17
2022-10-18T14:34:01.903Z,21.68
2022-10-18T14:36:41.023Z,20.60
2022-10-18T14:39:18.844Z,19.72
2022-10-18T14:41:53.495Z,19.03
2022-10-18T14:44:27.733Z,18.77
2022-10-18T14:47:31.313Z,18.24
2022-10-18T14:49:58.383Z,17.88
2022-10-18T14:52:35.297Z,17.56
2022-10-18T14:55:02.735Z,17.34
2022-10-18T14:57:36.415Z,16.99
2022-10-18T15:00:21.173Z,16.73
2022-10-18T15:02:48.067Z,16.53
2022-10-18T15:05:22.292Z,16.40
2022-10-18T15:07:51.242Z,16.20
2022-10-18T15:10:22.259Z,16.04
2022-10-18T15:13:08.799Z,15.85
2022-10-18T15:15:36.252Z,15.71
2022-10-18T15:18:05.288Z,15.63
2022-10-18T15:20:42.287Z,15.43
2022-10-18T15:23:20.900Z,15.22
2022-10-18T15:25:47.711Z,15.12
2022-10-18T15:28:32.816Z,15.05
2022-10-18T15:31:01.887Z,14.97
2022-10-18T15:33:34.517Z,14.87
2022-10-18T15:36:11.961Z,14.83
2022-10-18T15:38:38.897Z,14.80
2022-10-18T15:41:45.800Z,14.73
2022-10-18T15:44:34.880Z,14.55
2022-10-18T15:47:13.930Z,14.38
2022-10-18T15:49:46.771Z,14.24
2022-10-18T15:52:37.409Z,14.17
2022-10-18T15:55:29.937Z,14.13
2022-10-18T15:58:04.760Z,14.07
2022-10-18T16:00:31.545Z,14.10
2022-10-18T16:02:58.307Z,14.00
2022-10-18T16:05:25.788Z,13.88
2022-10-18T16:07:52.872Z,13.79
2022-10-18T16:10:19.666Z,13.69
2022-10-18T16:12:46.510Z,13.53
2022-10-18T16:15:13.415Z,13.51
2022-10-18T16:17:40.201Z,13.53
2022-10-18T16:20:09.771Z,13.58
2022-10-18T16:22:37.151Z,13.57
2022-10-18T16:25:04.303Z,13.53
2022-10-18T16:27:31.057Z,13.45
2022-10-18T16:29:57.934Z,13.28
2022-10-18T16:32:24.819Z,13.31
2022-10-18T16:34:51.606Z,13.26
2022-10-18T16:37:18.319Z,13.07
2022-10-18T16:39:45.099Z,12.93
2022-10-18T16:42:11.910Z,12.70
2022-10-18T16:44:38.723Z,12.48
2022-10-18T16:47:05.436Z,12.20
2022-10-18T16:49:32.253Z,12.06
2022-10-18T16:51:59.706Z,11.95
2022-10-18T16:54:26.485Z,11.75
2022-10-18T16:56:53.277Z,11.55
2022-10-18T16:59:30.984Z,11.43
2022-10-18T17:01:58.022Z,11.20
2022-10-18T17:04:25.044Z,11.04
2022-10-18T17:06:52.975Z,10.98
2022-10-18T17:09:19.775Z,10.85
2022-10-18T17:11:46.527Z,10.75
2022-10-18T17:14:13.230Z,10.46
2022-10-18T17:16:40.028Z,10.22
2022-10-18T17:19:08.239Z,10.09
2022-10-18T17:21:35.363Z,9.98
2022-10-18T17:24:03.275Z,9.90
2022-10-18T17:26:30.732Z,9.86
2022-10-18T17:29:00.226Z,9.76
2022-10-18T17:31:28.206Z,9.64
2022-10-18T17:33:55.434Z,9.65
2022-10-18T17:36:22.685Z,9.57
2022-10-18T17:38:56.127Z,9.38
2022-10-18T17:41:23.078Z,9.32
2022-10-18T17:43:50.044Z,9.27
2022-10-18T17:46:18.013Z,9.27
2022-10-18T17:48:45.662Z,9.24
2022-10-18T17:51:14.659Z,9.08
2022-10-18T17:53:41.440Z,9.05
2022-10-18T17:56:08.583Z,8.94
2022-10-18T17:58:35.699Z,8.85
2022-10-18T18:01:16.338Z,8.91
2022-10-18T18:03:43.405Z,8.96
2022-10-18T18:06:16.131Z,8.92
2022-10-18T18:08:43.017Z,8.87
2022-10-18T18:11:09.809Z,8.91
2022-10-18T18:13:36.620Z,8.83
2022-10-18T18:16:17.435Z,8.78
2022-10-18T18:18:45.056Z,8.75
2022-10-18T18:21:11.984Z,8.72
2022-10-18T18:23:38.892Z,8.66
2022-10-18T18:26:06.242Z,8.54
2022-10-18T18:28:34.559Z,8.48
2022-10-18T18:31:11.922Z,8.42
2022-10-18T18:33:38.799Z,8.32
2022-10-18T18:36:06.808Z,8.28
2022-10-18T18:38:34.903Z,8.16
2022-10-18T18:41:18.008Z,8.01
2022-10-18T18:43:49.495Z,7.98
2022-10-18T18:46:16.279Z,7.81
2022-10-18T18:48:43.129Z,7.78
2022-10-18T18:51:17.806Z,7.90
2022-10-18T18:53:45.400Z,7.99
2022-10-18T18:56:17.208Z,8.06
2022-10-18T18:58:44.268Z,8.06
2022-10-18T19:01:31.927Z,8.11
2022-10-18T19:03:59.995Z,8.13
2022-10-18T19:06:31.392Z,8.03
2022-10-18T19:09:01.666Z,8.00
2022-10-18T19:11:37.811Z,7.93
2022-10-18T19:15:06.834Z,7.90
2022-10-18T19:21:21.953Z,7.81
2022-10-18T19:23:50.240Z,7.75
2022-10-18T19:26:27.773Z,7.76
2022-10-18T19:28:55.001Z,7.79
2022-10-18T19:31:21.954Z,7.69
2022-10-18T19:33:59.304Z,7.55
2022-10-18T19:36:27.700Z,7.39
2022-10-18T19:38:54.663Z,7.28
2022-10-18T19:41:21.649Z,7.18
2022-10-18T19:43:48.548Z,7.01
2022-10-18T19:46:15.450Z,6.91
2022-10-18T19:48:42.346Z,6.78
2022-10-18T19:51:15.985Z,6.76
2022-10-18T19:53:46.393Z,6.68
2022-10-18T19:56:22.025Z,6.66
2022-10-18T19:58:49.589Z,6.70
2022-10-18T20:01:16.995Z,6.73
2022-10-18T20:03:44.491Z,6.72
2022-10-18T20:06:11.680Z,6.64
2022-10-18T20:08:39.590Z,6.56
2022-10-18T20:11:09.008Z,6.57
2022-10-18T20:13:36.295Z,6.53
2022-10-18T20:16:04.243Z,6.47
2022-10-18T20:18:31.288Z,6.51
2022-10-18T20:20:58.019Z,6.44
2022-10-18T20:23:25.079Z,6.39
2022-10-18T20:26:18.085Z,6.39
2022-10-18T20:28:57.016Z,6.37
2022-10-18T20:31:29.618Z,6.31
2022-10-18T20:34:01.192Z,6.31
2022-10-18T20:36:29.653Z,6.15
2022-10-18T20:38:57.016Z,6.18
2022-10-18T20:41:27.232Z,6.20
2022-10-18T20:43:58.990Z,6.23
2022-10-18T20:46:27.082Z,6.05
2022-10-18T20:48:54.366Z,6.00
2022-10-18T20:51:21.724Z,5.96
2022-10-18T20:53:48.843Z,5.84
2022-10-18T20:56:21.607Z,5.78
2022-10-18T20:58:50.443Z,5.84
2022-10-18T21:01:18.665Z,5.83
2022-10-18T21:03:47.204Z,5.88
2022-10-18T21:06:14.972Z,5.80
2022-10-18T21:08:42.244Z,5.68
2022-10-18T21:11:09.981Z,5.71
2022-10-18T21:13:37.087Z,5.74
2022-10-18T21:16:05.202Z,5.73
2022-10-18T21:18:33.944Z,5.74
2022-10-18T21:23:46.773Z,5.80
2022-10-18T21:26:19.028Z,5.76
2022-10-18T21:28:46.333Z,5.66
2022-10-18T21:31:17.378Z,5.68
2022-10-18T21:33:44.804Z,5.69
2022-10-18T21:36:12.897Z,5.65
2022-10-18T21:38:40.310Z,5.51
2022-10-18T21:41:11.176Z,5.52
2022-10-18T21:43:45.933Z,5.49
2022-10-18T21:46:13.612Z,5.41
2022-10-18T21:48:44.196Z,5.29
2022-10-18T21:51:11.517Z,5.16
2022-10-18T21:53:38.276Z,5.27
2022-10-18T21:56:10.876Z,5.30
2022-10-18T21:58:38.547Z,5.24
2022-10-18T22:01:23.175Z,5.33
2022-10-18T22:03:51.791Z,5.31
2022-10-18T22:06:18.993Z,5.25
2022-10-18T22:08:51.925Z,5.22
2022-10-18T22:11:20.395Z,5.16
2022-10-18T22:13:47.402Z,5.11
2022-10-18T22:16:15.840Z,5.03
2022-10-18T22:18:43.432Z,5.03
2022-10-18T22:21:11.773Z,5.01
2022-10-18T22:23:50.143Z,4.91
2022-10-18T22:26:23.917Z,4.87
2022-10-18T22:28:59.312Z,4.85
2022-10-18T22:31:28.696Z,4.92
2022-10-18T22:33:56.795Z,4.97
2022-10-18T22:36:25.698Z,4.96
2022-10-18T22:38:52.624Z,4.92
2022-10-18T22:41:19.823Z,4.92
2022-10-18T22:43:47.819Z,4.91
2022-10-18T22:46:15.032Z,4.87
2022-10-18T22:48:42.464Z,4.80
2022-10-18T22:51:09.429Z,4.80
2022-10-18T22:53:37.021Z,4.84
2022-10-18T22:56:04.578Z,4.85
2022-10-18T22:58:31.898Z,4.82
2022-10-18T23:01:13.240Z,4.88
2022-10-18T23:03:40.318Z,4.84
2022-10-18T23:06:20.356Z,4.79
2022-10-18T23:08:47.230Z,4.73
2022-10-18T23:11:14.445Z,4.68
2022-10-18T23:13:41.298Z,4.68
2022-10-18T23:16:08.149Z,4.66
2022-10-18T23:18:35.007Z,4.63
2022-10-18T23:21:06.802Z,4.65
2022-10-18T23:23:35.673Z,4.63
2022-10-18T23:26:17.019Z,4.56
2022-10-18T23:28:45.763Z,4.60
2022-10-18T23:31:15.244Z,4.55
2022-10-18T23:33:42.016Z,4.55
2022-10-18T23:36:09.005Z,4.54
2022-10-18T23:38:36.799Z,4.44
2022-10-18T23:41:04.663Z,4.36
2022-10-18T23:43:31.856Z,4.29
2022-10-18T23:45:58.789Z,4.23
2022-10-18T23:48:25.675Z,4.22
2022-10-18T23:50:52.739Z,4.25
2022-10-18T23:53:20.070Z,4.27
2022-10-18T23:55:54.117Z,4.28
2022-10-18T23:58:21.116Z,4.30
